createdAt,value
2022-08-31T00:01:28.007Z,82.82
2022-08-31T00:06:31.895Z,82.98
2022-08-31T00:11:37.930Z,83.11
2022-08-31T00:16:43.292Z,82.54
2022-08-31T00:21:46.274Z,82.19
2022-08-31T00:26:50.613Z,82.78
2022-08-31T00:31:53.997Z,81.82
2022-08-31T00:36:57.044Z,83.13
2022-08-31T00:42:01.681Z,83.24
2022-08-31T00:47:04.859Z,83.14
2022-08-31T00:52:12.304Z,82.86
2022-08-31T00:57:17.706Z,83.05
2022-08-31T01:02:23.918Z,82.58
2022-08-31T01:07:27.532Z,83.80
2022-08-31T01:12:32.049Z,82.61
2022-08-31T01:17:37.663Z,82.13
2022-08-31T01:22:49.900Z,83.89
2022-08-31T01:27:55.156Z,83.56
2022-08-31T01:32:58.052Z,83.32
2022-08-31T01:38:01.471Z,82.93
2022-08-31T01:43:06.305Z,83.40
2022-08-31T01:48:11.521Z,85.03
2022-08-31T01:53:14.927Z,84.00
2022-08-31T01:58:19.508Z,84.41
2022-08-31T02:03:31.484Z,83.65
2022-08-31T02:08:34.669Z,83.75
2022-08-31T02:13:39.629Z,84.18
2022-08-31T02:18:42.596Z,84.26
2022-08-31T02:23:48.287Z,85.99
2022-08-31T02:28:52.719Z,85.15
2022-08-31T02:33:56.476Z,84.65
2022-08-31T02:38:59.968Z,85.72
2022-08-31T02:44:05.107Z,85.01
2022-08-31T02:49:08.317Z,85.23
2022-08-31T02:54:12.375Z,85.36
2022-08-31T02:59:16.876Z,86.04
2022-08-31T03:04:21.485Z,86.04
2022-08-31T03:09:24.764Z,85.86
2022-08-31T03:14:29.216Z,85.63
2022-08-31T03:19:32.159Z,84.50
2022-08-31T03:24:35.070Z,85.76
2022-08-31T03:29:39.361Z,85.85
2022-08-31T03:35:00.546Z,84.81
2022-08-31T03:40:04.839Z,84.73
2022-08-31T03:45:11.209Z,84.62
2022-08-31T03:50:16.190Z,84.07
2022-08-31T03:55:29.962Z,84.23
2022-08-31T04:00:35.473Z,83.20
2022-08-31T04:05:45.263Z,83.42
2022-08-31T04:10:50.155Z,82.83
2022-08-31T04:16:14.962Z,83.72
2022-08-31T04:21:36.222Z,83.81
2022-08-31T04:26:41.588Z,83.63
2022-08-31T04:31:47.127Z,85.03
2022-08-31T04:36:50.067Z,84.44
2022-08-31T04:41:53.797Z,84.71
2022-08-31T04:46:58.754Z,84.43
2022-08-31T04:52:03.090Z,83.59
2022-08-31T04:57:06.279Z,84.61
2022-08-31T05:02:10.954Z,84.65
2022-08-31T05:07:17.656Z,85.63
2022-08-31T05:12:21.342Z,85.30
2022-08-31T05:17:25.733Z,85.37
2022-08-31T05:22:30.452Z,85.48
2022-08-31T05:27:35.173Z,84.62
2022-08-31T05:32:39.586Z,84.00
2022-08-31T05:37:46.372Z,84.14
2022-08-31T05:42:50.350Z,83.72
2022-08-31T05:47:54.720Z,83.18
2022-08-31T05:52:57.791Z,82.50
2022-08-31T05:58:01.518Z,81.71
2022-08-31T06:03:06.082Z,81.34
2022-08-31T06:08:13.227Z,80.69
2022-08-31T06:13:20.125Z,80.09
2022-08-31T06:18:24.832Z,79.93
2022-08-31T06:23:30.031Z,79.51
2022-08-31T06:28:33.833Z,79.04
2022-08-31T06:33:40.202Z,78.81
2022-08-31T06:38:51.688Z,78.55
2022-08-31T06:44:14.560Z,78.60
2022-08-31T06:49:37.486Z,78.56
2022-08-31T06:54:40.504Z,78.30
2022-08-31T07:00:01.918Z,78.07
2022-08-31T07:05:25.027Z,78.07
2022-08-31T07:10:30.013Z,77.64
2022-08-31T07:15:32.972Z,77.03
2022-08-31T07:20:37.852Z,76.76
2022-08-31T07:25:45.062Z,77.04
2022-08-31T07:30:50.226Z,76.44
2022-08-31T07:35:55.946Z,76.34
2022-08-31T07:41:51.196Z,76.58
2022-08-31T07:46:55.220Z,75.78
2022-08-31T07:52:01.423Z,75.60
2022-08-31T07:57:25.722Z,75.16
2022-08-31T08:02:31.063Z,73.51
2022-08-31T08:07:36.254Z,72.63
2022-08-31T08:13:04.946Z,72.06
2022-08-31T08:18:20.879Z,71.50
2022-08-31T08:23:29.843Z,70.89
2022-08-31T08:28:56.129Z,70.73
2022-08-31T08:34:00.964Z,68.35
2022-08-31T08:39:08.456Z,67.65
2022-08-31T08:44:17.841Z,67.08
2022-08-31T08:49:27.202Z,67.43
2022-08-31T08:54:35.739Z,67.84
2022-08-31T08:59:41.886Z,65.91
2022-08-31T09:05:04.392Z,64.35
2022-08-31T09:10:32.709Z,64.57
2022-08-31T09:15:49.532Z,62.71
2022-08-31T09:21:07.190Z,61.87
2022-08-31T09:26:17.040Z,59.00
2022-08-31T09:31:39.886Z,59.50
2022-08-31T09:36:43.670Z,55.74
2022-08-31T09:41:50.780Z,54.95
2022-08-31T09:46:56.712Z,57.14
2022-08-31T09:52:44.193Z,56.28
2022-08-31T09:57:54.507Z,55.36
2022-08-31T10:03:09.894Z,56.30
2022-08-31T10:08:28.107Z,55.04
2022-08-31T10:13:39.331Z,54.42
2022-08-31T10:18:56.126Z,54.25
2022-08-31T10:24:10.395Z,54.58
2022-08-31T10:29:23.474Z,52.84
2022-08-31T10:34:46.046Z,52.72
2022-08-31T10:39:53.256Z,52.13
2022-08-31T10:45:09.232Z,51.57
2022-08-31T10:50:17.037Z,51.77
2022-08-31T10:55:33.191Z,48.34
2022-08-31T11:00:49.706Z,50.01
2022-08-31T11:06:00.121Z,47.79
2022-08-31T11:11:05.977Z,48.12
2022-08-31T11:16:31.264Z,50.06
2022-08-31T11:22:17.595Z,46.67
2022-08-31T11:27:24.717Z,49.17
2022-08-31T11:32:34.856Z,47.64
2022-08-31T11:37:57.246Z,46.57
2022-08-31T11:43:01.507Z,47.21
2022-08-31T11:48:12.632Z,48.13
2022-08-31T11:53:25.399Z,46.53
2022-08-31T11:58:33.733Z,47.69
2022-08-31T12:03:53.424Z,46.85
2022-08-31T12:09:14.136Z,47.39
2022-08-31T12:14:25.441Z,45.86
2022-08-31T12:20:00.547Z,45.67
2022-08-31T12:25:15.903Z,46.54
2022-08-31T12:30:21.965Z,46.01
2022-08-31T12:35:27.854Z,44.83
2022-08-31T12:40:33.154Z,45.80
2022-08-31T12:45:52.943Z,44.08
2022-08-31T12:51:05.180Z,44.61
2022-08-31T12:56:14.863Z,44.89
2022-08-31T13:01:22.836Z,45.61
2022-08-31T13:06:29.682Z,45.01
2022-08-31T13:11:40.690Z,44.45
2022-08-31T13:16:48.110Z,43.85
2022-08-31T13:21:57.117Z,43.41
2022-08-31T13:27:09.099Z,43.43
2022-08-31T13:32:15.055Z,44.39
2022-08-31T13:37:25.325Z,43.43
2022-08-31T13:42:39.536Z,45.28
2022-08-31T13:47:57.436Z,43.89
2022-08-31T13:53:25.942Z,44.04
2022-08-31T13:58:30.305Z,42.76
2022-08-31T14:03:46.617Z,42.80
2022-08-31T14:08:53.554Z,40.94
2022-08-31T14:14:05.944Z,42.05
2022-08-31T14:19:10.795Z,41.48
2022-08-31T14:24:16.723Z,40.31
2022-08-31T14:29:19.783Z,40.93
2022-08-31T14:34:30.326Z,42.32
2022-08-31T14:39:37.858Z,41.79
2022-08-31T14:44:43.043Z,42.06
2022-08-31T14:49:46.393Z,42.56
2022-08-31T14:54:50.870Z,41.95
2022-08-31T14:59:57.678Z,41.64
2022-08-31T15:05:06.648Z,41.97
2022-08-31T15:10:13.062Z,42.31
2022-08-31T15:15:21.101Z,41.78
2022-08-31T15:20:24.766Z,42.94
2022-08-31T15:25:29.151Z,41.70
2022-08-31T15:30:33.858Z,42.64
2022-08-31T15:35:41.718Z,43.25
2022-08-31T15:40:46.515Z,41.24
2022-08-31T15:45:49.755Z,42.47
2022-08-31T15:51:00.240Z,42.82
2022-08-31T15:56:06.737Z,43.90
2022-08-31T16:01:16.303Z,42.50
2022-08-31T16:06:21.905Z,43.15
2022-08-31T16:11:28.200Z,43.04
2022-08-31T16:16:35.587Z,43.77
2022-08-31T16:21:45.623Z,44.10
2022-08-31T16:26:55.198Z,42.80
2022-08-31T16:31:58.246Z,43.33
2022-08-31T16:37:07.177Z,42.95
2022-08-31T16:42:12.930Z,42.72
2022-08-31T16:47:18.861Z,42.97
2022-08-31T16:52:24.238Z,43.30
2022-08-31T16:57:32.649Z,44.06
2022-08-31T17:02:35.987Z,44.72
2022-08-31T17:07:42.651Z,44.93
2022-08-31T17:12:48.347Z,45.38
2022-08-31T17:17:51.353Z,46.17
2022-08-31T17:22:56.938Z,46.02
2022-08-31T17:28:07.713Z,45.58
2022-08-31T17:33:12.727Z,45.85
2022-08-31T17:38:15.778Z,46.86
2022-08-31T17:43:21.964Z,47.06
2022-08-31T17:48:28.192Z,47.40
2022-08-31T17:53:34.239Z,48.18
2022-08-31T17:58:38.650Z,48.84
2022-08-31T18:03:41.883Z,48.28
2022-08-31T18:08:44.878Z,48.54
2022-08-31T18:13:53.370Z,49.16
2022-08-31T18:18:56.702Z,49.54
2022-08-31T18:23:59.920Z,49.93
2022-08-31T18:29:06.591Z,50.20
2022-08-31T18:34:13.769Z,50.90
2022-08-31T18:39:40.816Z,51.27
2022-08-31T18:45:05.928Z,52.14
2022-08-31T18:50:09.766Z,52.90
2022-08-31T18:55:12.889Z,53.25
2022-08-31T19:00:17.894Z,53.80
2022-08-31T19:05:21.000Z,53.93
2022-08-31T19:10:25.461Z,54.01
2022-08-31T19:15:35.919Z,54.32
2022-08-31T19:20:39.534Z,54.99
2022-08-31T19:25:43.578Z,54.92
2022-08-31T19:30:48.788Z,54.95
2022-08-31T19:35:59.478Z,55.03
2022-08-31T19:41:07.216Z,54.96
2022-08-31T19:46:14.306Z,55.21
2022-08-31T19:51:21.879Z,55.79
2022-08-31T19:56:30.545Z,56.08
2022-08-31T20:01:35.396Z,56.11
2022-08-31T20:06:39.326Z,56.47
2022-08-31T20:11:42.553Z,56.58
2022-08-31T20:16:47.780Z,56.46
2022-08-31T20:21:53.895Z,56.38
2022-08-31T20:27:01.065Z,56.94
2022-08-31T20:32:07.936Z,57.05
2022-08-31T20:37:12.856Z,57.24
2022-08-31T20:42:16.734Z,57.55
2022-08-31T20:47:38.600Z,57.63
2022-08-31T20:52:41.876Z,57.51
2022-08-31T20:57:46.357Z,57.43
2022-08-31T21:02:52.146Z,57.35
2022-08-31T21:07:57.617Z,57.23
2022-08-31T21:13:03.311Z,57.99
2022-08-31T21:18:07.768Z,58.44
2022-08-31T21:23:13.348Z,58.46
2022-08-31T21:28:18.448Z,58.91
2022-08-31T21:33:23.130Z,58.44
2022-08-31T21:38:26.862Z,58.28
2022-08-31T21:43:30.477Z,58.99
2022-08-31T21:48:37.128Z,59.53
2022-08-31T21:53:41.316Z,60.00
2022-08-31T21:58:45.057Z,61.13
2022-08-31T22:03:53.892Z,61.52
2022-08-31T22:09:02.850Z,62.17
2022-08-31T22:14:08.481Z,61.73
2022-08-31T22:19:14.611Z,63.02
2022-08-31T22:24:27.339Z,63.48
2022-08-31T22:29:33.003Z,63.98
2022-08-31T22:34:38.835Z,64.81
2022-08-31T22:39:42.773Z,65.18
2022-08-31T22:44:46.046Z,65.44
2022-08-31T22:49:50.575Z,67.10
2022-08-31T22:54:53.962Z,66.55
2022-08-31T22:59:57.084Z,66.95
2022-08-31T23:05:03.567Z,67.18
2022-08-31T23:10:09.141Z,67.55
2022-08-31T23:15:15.294Z,69.25
2022-08-31T23:20:24.405Z,69.28
2022-08-31T23:25:27.617Z,68.16
2022-08-31T23:30:30.921Z,69.83
2022-08-31T23:35:35.375Z,70.55
2022-08-31T23:40:38.563Z,70.73
2022-08-31T23:45:41.969Z,71.63
2022-08-31T23:50:46.437Z,71.05
2022-08-31T23:55:50.223Z,71.19
